Time;durP1;ratioP1;P1;durP2;ratioP2;P2;SDS_P1;SDS_P2;PMS_P1;PMS_P2;Temp;Humidity;BMP_temperature;BMP_pressure;BME280_temperature;BME280_humidity;BME280_pressure;Samples;Min_cycle;Max_cycle;Signal;HPM_P1;HPM_P2
2022/11/05 00:09:40;;;;;;;38.22;25.38;;;13.10;99.90;;;;;;5032428;28;20128;-78
2022/11/05 00:17:41;;;;;;;39.45;28.63;;;12.90;99.90;;;;;;5031698;28;20045;-79
2022/11/05 00:20:12;;;;;;;43.85;30.10;;;12.90;99.90;;;;;;5030737;28;20042;-78
2022/11/05 00:25:28;;;;;;;42.38;29.40;;;12.90;99.90;;;;;;5030147;28;20091;-78
2022/11/05 00:28:01;;;;;;;39.70;29.90;;;12.90;99.90;;;;;;5030686;28;20052;-78
2022/11/05 00:30:29;;;;;;;38.97;28.13;;;13.00;99.90;;;;;;5038698;28;20050;-78
2022/11/05 00:33:01;;;;;;;44.85;31.23;;;13.00;99.90;;;;;;5033564;28;20040;-77
2022/11/05 00:35:29;;;;;;;41.88;31.88;;;13.00;99.90;;;;;;5031367;28;20083;-78
2022/11/05 00:37:56;;;;;;;42.67;32.53;;;13.00;99.90;;;;;;5031461;28;20049;-78
2022/11/05 00:40:25;;;;;;;44.72;34.33;;;12.90;99.90;;;;;;5030042;28;20129;-75
2022/11/05 00:45:37;;;;;;;48.00;35.55;;;12.90;99.90;;;;;;5032656;28;20118;-77
2022/11/05 00:50:50;;;;;;;42.08;31.90;;;12.90;99.90;;;;;;5028565;28;20045;-77
2022/11/05 00:53:19;;;;;;;59.08;40.15;;;12.90;99.90;;;;;;5031008;28;20052;-75
2022/11/05 00:55:48;;;;;;;47.10;34.05;;;12.90;99.90;;;;;;5030678;28;20507;-77
2022/11/05 00:58:17;;;;;;;55.53;37.83;;;13.00;99.90;;;;;;5030896;28;20041;-78
2022/11/05 01:00:48;;;;;;;52.45;37.70;;;13.00;99.90;;;;;;5030585;28;20539;-79
2022/11/05 01:03:18;;;;;;;56.20;40.47;;;13.00;99.90;;;;;;5030795;28;20045;-77
2022/11/05 01:05:47;;;;;;;48.58;35.22;;;13.00;99.90;;;;;;5035953;28;20097;-78
2022/11/05 01:08:15;;;;;;;46.00;33.95;;;12.90;99.90;;;;;;5030523;28;20033;-76
2022/11/05 01:10:43;;;;;;;46.55;32.25;;;12.90;99.90;;;;;;5029759;28;20107;-77
2022/11/05 01:13:14;;;;;;;46.25;33.40;;;13.00;99.90;;;;;;5030312;28;20041;-76
2022/11/05 01:15:41;;;;;;;40.28;29.45;;;13.00;99.90;;;;;;5030781;28;20041;-76
2022/11/05 01:18:09;;;;;;;39.13;27.63;;;13.00;99.90;;;;;;5030516;28;20046;-76
2022/11/05 01:20:36;;;;;;;35.70;27.05;;;12.80;99.90;;;;;;5028795;28;20129;-77
2022/11/05 01:23:03;;;;;;;39.97;30.48;;;12.80;99.90;;;;;;5030137;28;20135;-77
2022/11/05 01:25:31;;;;;;;40.58;29.48;;;12.70;99.90;;;;;;5029275;28;20042;-77
2022/11/05 01:27:58;;;;;;;47.58;32.63;;;12.70;99.90;;;;;;5029673;28;20034;-77
2022/11/05 01:30:27;;;;;;;44.72;33.70;;;12.70;99.90;;;;;;5029444;28;20090;-76
2022/11/05 01:32:54;;;;;;;44.42;32.83;;;12.70;99.90;;;;;;5032431;28;20096;-77
2022/11/05 01:35:22;;;;;;;40.63;30.92;;;12.80;99.90;;;;;;5031648;28;20076;-77
2022/11/05 01:37:49;;;;;;;46.97;33.35;;;12.80;99.90;;;;;;5031392;28;20574;-77
2022/11/05 01:40:19;;;;;;;42.80;31.73;;;12.80;99.90;;;;;;5029739;28;20398;-77
2022/11/05 01:42:47;;;;;;;53.67;37.17;;;12.80;99.90;;;;;;5030245;28;20455;-78
2022/11/05 01:45:18;;;;;;;56.47;40.05;;;12.80;99.90;;;;;;5029990;28;20052;-77
2022/11/05 01:47:56;;;;;;;58.80;39.17;;;12.80;99.90;;;;;;5042601;28;20045;-76
2022/11/05 01:50:30;;;;;;;38.95;29.58;;;12.80;99.90;;;;;;5042887;28;20081;-75
2022/11/05 01:53:03;;;;;;;42.63;29.67;;;12.80;99.90;;;;;;5029951;28;20111;-76
2022/11/05 01:55:34;;;;;;;43.80;29.55;;;12.90;99.90;;;;;;5029534;28;20095;-77
2022/11/05 01:58:05;;;;;;;40.00;27.95;;;12.90;99.90;;;;;;5031191;28;20041;-76
2022/11/05 02:00:33;;;;;;;41.40;27.90;;;12.80;99.90;;;;;;5033897;28;20072;-78
2022/11/05 02:03:02;;;;;;;41.22;28.33;;;12.90;99.90;;;;;;5030676;28;20095;-76
2022/11/05 02:05:30;;;;;;;36.53;25.83;;;12.80;99.90;;;;;;5030196;28;20065;-77
2022/11/05 02:07:58;;;;;;;36.50;26.40;;;12.80;99.90;;;;;;5030678;28;20099;-75
2022/11/05 02:10:26;;;;;;;35.65;24.90;;;12.80;99.90;;;;;;5030794;28;20045;-74
2022/11/05 02:12:54;;;;;;;33.47;23.88;;;12.80;99.90;;;;;;5030576;28;20076;-75
2022/11/05 02:15:27;;;;;;;34.58;23.92;;;12.70;99.90;;;;;;5029133;28;20045;-74
2022/11/05 02:18:07;;;;;;;32.58;22.60;;;12.70;99.90;;;;;;5054570;28;20037;-76
2022/11/05 02:20:41;;;;;;;32.58;21.58;;;12.70;99.90;;;;;;5054361;28;20041;-75
2022/11/05 02:23:34;;;;;;;29.45;21.40;;;12.70;99.90;;;;;;5039732;28;20134;-77
2022/11/05 02:26:33;;;;;;;31.30;22.17;;;12.70;99.90;;;;;;5027491;28;20490;-77
2022/11/05 02:29:44;;;;;;;31.38;21.88;;;12.70;99.90;;;;;;5030358;28;20044;-76
2022/11/05 02:32:19;;;;;;;28.02;21.33;;;12.70;99.90;;;;;;5009099;28;20103;-77
2022/11/05 02:34:55;;;;;;;32.08;22.63;;;12.80;99.90;;;;;;5030129;28;20048;-76
2022/11/05 02:37:34;;;;;;;28.05;21.42;;;12.80;99.90;;;;;;5028874;28;20037;-77
2022/11/05 02:40:08;;;;;;;27.30;18.88;;;12.80;99.90;;;;;;5028913;28;20124;-74
2022/11/05 02:42:44;;;;;;;29.00;19.40;;;12.80;99.90;;;;;;5027901;28;20053;-75
2022/11/05 02:45:23;;;;;;;29.13;20.60;;;12.80;99.90;;;;;;5028804;28;20043;-75
2022/11/05 02:48:01;;;;;;;29.35;20.80;;;12.80;99.90;;;;;;5019562;28;20489;-77
2022/11/05 02:50:34;;;;;;;26.48;18.98;;;12.80;99.90;;;;;;5018769;28;20084;-75
2022/11/05 02:53:08;;;;;;;25.27;18.75;;;12.80;99.90;;;;;;5029344;28;20402;-75
2022/11/05 02:55:40;;;;;;;26.08;17.23;;;12.70;99.90;;;;;;5028303;28;20045;-76
2022/11/05 02:58:07;;;;;;;21.33;14.77;;;12.70;99.90;;;;;;5028895;28;20095;-77
2022/11/05 03:00:43;;;;;;;21.95;15.13;;;12.60;99.90;;;;;;5028835;28;20386;-75
2022/11/05 03:03:18;;;;;;;22.10;15.38;;;12.60;99.90;;;;;;5028389;28;20061;-76
2022/11/05 03:06:16;;;;;;;20.77;14.95;;;12.60;99.90;;;;;;5028433;28;20048;-76
2022/11/05 03:09:11;;;;;;;21.70;15.65;;;12.60;99.90;;;;;;5020243;28;20073;-75
2022/11/05 03:11:47;;;;;;;21.65;14.70;;;12.60;99.90;;;;;;5044433;28;20049;-77
2022/11/05 03:14:23;;;;;;;24.20;16.98;;;12.60;99.90;;;;;;5049098;28;20060;-76
2022/11/05 03:16:53;;;;;;;;;;;12.60;99.90;;;;;;5034302;28;20050;-76
2022/11/05 03:19:28;;;;;;;27.58;20.25;;;12.50;99.90;;;;;;5033183;28;19927;-76
2022/11/05 03:22:00;;;;;;;27.73;20.67;;;12.50;99.90;;;;;;5033517;28;20060;-75
2022/11/05 03:24:32;;;;;;;29.20;20.75;;;12.50;99.90;;;;;;5031659;28;20037;-77
2022/11/05 03:27:03;;;;;;;31.92;21.70;;;12.50;99.90;;;;;;5032501;28;20071;-75
2022/11/05 03:29:36;;;;;;;27.15;19.02;;;12.50;99.90;;;;;;5030985;28;20041;-77
2022/11/05 03:32:06;;;;;;;23.13;16.67;;;12.60;99.90;;;;;;5031353;28;20041;-76
2022/11/05 03:34:39;;;;;;;28.10;19.60;;;12.50;99.90;;;;;;5032450;28;20048;-77
2022/11/05 03:37:08;;;;;;;25.48;19.02;;;12.60;99.90;;;;;;5031624;28;20409;-77
2022/11/05 03:39:40;;;;;;;23.60;17.33;;;12.60;99.90;;;;;;5031899;28;20045;-77
2022/11/05 03:42:11;;;;;;;24.70;17.52;;;12.50;99.90;;;;;;5030951;28;20047;-77
2022/11/05 03:44:43;;;;;;;24.83;18.02;;;12.50;99.90;;;;;;5031194;28;20041;-74
2022/11/05 03:47:14;;;;;;;25.95;18.60;;;12.60;99.90;;;;;;5031388;28;20132;-75
2022/11/05 03:49:52;;;;;;;27.80;18.70;;;12.60;99.90;;;;;;5031940;28;20046;-78
2022/11/05 03:52:24;;;;;;;23.15;17.20;;;12.60;99.90;;;;;;5031122;28;20045;-78
2022/11/05 03:54:51;;;;;;;22.13;16.33;;;12.60;99.90;;;;;;5031489;28;20039;-78
2022/11/05 03:57:22;;;;;;;21.92;16.98;;;12.60;99.90;;;;;;5031439;28;20049;-77
2022/11/05 03:59:50;;;;;;;24.30;18.85;;;12.60;99.90;;;;;;5030784;28;20044;-77
2022/11/05 04:02:19;;;;;;;28.75;19.63;;;12.60;99.90;;;;;;5031745;28;20037;-77
2022/11/05 04:04:48;;;;;;;28.20;19.05;;;12.60;99.90;;;;;;5031327;28;20040;-76
2022/11/05 04:15:29;;;;;;;13.77;9.45;;;12.40;99.90;;;;;;5031963;28;20437;-76
2022/11/05 04:17:57;;;;;;;15.95;11.77;;;12.40;99.90;;;;;;5031580;28;20065;-75
2022/11/05 04:25:55;;;;;;;18.30;13.75;;;12.40;99.90;;;;;;5031036;28;20096;-76
2022/11/05 04:30:17;;;;;;;18.20;13.80;;;12.40;99.90;;;;;;5031266;28;20614;-76
2022/11/05 04:31:09;;;;;;;16.02;13.10;;;12.40;99.90;;;;;;5029874;28;20045;-74
2022/11/05 04:33:36;;;;;;;15.10;12.00;;;12.40;99.90;;;;;;5030629;28;20045;-76
2022/11/05 04:36:05;;;;;;;17.33;13.52;;;12.50;99.90;;;;;;5030895;28;20037;-76
2022/11/05 04:38:32;;;;;;;16.02;12.48;;;12.50;99.90;;;;;;5029936;28;20638;-75
2022/11/05 04:41:12;;;;;;;15.82;12.70;;;12.50;99.90;;;;;;5018522;28;20045;-76
2022/11/05 04:43:40;;;;;;;18.00;12.80;;;12.60;99.90;;;;;;5030338;28;20042;-76
2022/11/05 04:46:08;;;;;;;16.70;13.90;;;12.60;99.90;;;;;;5030988;28;20171;-75
2022/11/05 04:48:36;;;;;;;25.15;16.83;;;12.50;99.90;;;;;;5030703;28;20040;-76
2022/11/05 04:51:05;;;;;;;21.25;14.23;;;12.50;99.90;;;;;;5029542;28;20046;-78
2022/11/05 04:53:33;;;;;;;18.65;13.65;;;12.60;99.90;;;;;;5029964;28;20576;-76
2022/11/05 04:56:10;;;;;;;19.30;12.55;;;12.60;99.90;;;;;;5030811;28;20041;-76
2022/11/05 04:58:39;;;;;;;19.98;13.75;;;12.60;99.90;;;;;;5039586;28;20034;-78
2022/11/05 05:01:07;;;;;;;20.35;14.70;;;12.60;99.90;;;;;;5049424;28;20045;-77
2022/11/05 05:03:34;;;;;;;22.33;16.80;;;12.60;99.90;;;;;;5033629;28;20045;-78
2022/11/05 05:06:01;;;;;;;22.50;18.63;;;12.60;99.90;;;;;;5030865;28;20041;-78
2022/11/05 05:08:31;;;;;;;24.48;20.40;;;12.60;99.90;;;;;;5031104;28;20046;-77
2022/11/05 05:11:02;;;;;;;25.45;19.10;;;12.60;99.90;;;;;;5031089;28;20045;-78
2022/11/05 05:13:29;;;;;;;25.58;19.92;;;12.60;99.90;;;;;;5029849;28;20056;-78
2022/11/05 05:15:56;;;;;;;26.08;20.25;;;12.60;99.90;;;;;;5030299;28;20132;-78
2022/11/05 05:18:27;;;;;;;27.95;22.90;;;12.60;99.90;;;;;;5030639;28;20656;-77
2022/11/05 05:23:44;;;;;;;26.90;20.70;;;12.50;99.90;;;;;;5029894;28;20041;-78
2022/11/05 05:26:11;;;;;;;29.80;23.40;;;12.50;99.90;;;;;;5030387;28;20048;-78
2022/11/05 05:28:38;;;;;;;33.85;24.48;;;12.50;99.90;;;;;;5030192;28;20065;-78
2022/11/05 05:31:06;;;;;;;27.40;21.63;;;12.50;99.90;;;;;;5028299;28;20042;-78
2022/11/05 05:33:33;;;;;;;24.25;17.88;;;12.50;99.90;;;;;;5029701;28;20037;-77
2022/11/05 05:36:01;;;;;;;25.17;18.33;;;12.50;99.90;;;;;;5030530;28;20083;-79
2022/11/05 05:38:28;;;;;;;25.60;17.88;;;12.50;99.90;;;;;;5030090;28;20037;-79
2022/11/05 05:41:00;;;;;;;20.83;15.85;;;12.50;99.90;;;;;;5019062;28;20065;-78
2022/11/05 05:43:30;;;;;;;19.45;13.57;;;12.50;99.90;;;;;;5030504;28;20119;-80
2022/11/05 05:46:01;;;;;;;12.05;8.57;;;12.40;99.90;;;;;;5029988;28;20042;-80
2022/11/05 05:48:28;;;;;;;6.45;4.35;;;12.30;99.90;;;;;;5029964;28;20037;-77
2022/11/05 05:50:59;;;;;;;3.88;2.40;;;12.20;99.90;;;;;;5030561;28;20124;-77
2022/11/05 05:53:26;;;;;;;5.40;2.60;;;12.10;99.90;;;;;;5031385;28;20048;-79
2022/11/05 05:55:53;;;;;;;4.85;2.45;;;12.00;99.90;;;;;;5032579;28;20038;-79
2022/11/05 05:58:22;;;;;;;7.30;3.30;;;11.80;99.90;;;;;;5031153;28;20124;-77
2022/11/05 06:00:49;;;;;;;4.05;2.13;;;11.70;99.90;;;;;;5029033;28;20107;-75
2022/11/05 06:03:17;;;;;;;4.35;2.22;;;11.50;99.90;;;;;;5030137;28;20069;-78
2022/11/05 06:05:44;;;;;;;4.70;2.15;;;11.30;99.90;;;;;;5028726;28;20048;-77
2022/11/05 06:08:11;;;;;;;3.72;2.15;;;11.10;99.90;;;;;;5029712;28;20056;-76
2022/11/05 06:10:39;;;;;;;4.88;2.80;;;11.00;99.90;;;;;;5034980;28;20116;-77
2022/11/05 06:13:06;;;;;;;7.10;3.55;;;10.90;99.90;;;;;;5028064;28;20095;-76
2022/11/05 06:15:34;;;;;;;4.57;2.50;;;11.00;99.90;;;;;;5029220;28;20041;-75
2022/11/05 06:18:01;;;;;;;4.57;2.20;;;10.90;99.90;;;;;;5029286;28;20038;-76
2022/11/05 06:20:29;;;;;;;5.03;2.55;;;10.80;99.90;;;;;;5028324;28;20100;-75
2022/11/05 06:22:56;;;;;;;4.93;2.72;;;10.70;99.90;;;;;;5028660;28;20107;-76
2022/11/05 06:25:24;;;;;;;8.77;3.03;;;10.80;99.90;;;;;;5029420;28;20036;-75
2022/11/05 06:27:51;;;;;;;3.85;2.15;;;10.70;99.90;;;;;;5040506;28;20096;-75
2022/11/05 06:30:20;;;;;;;4.75;2.67;;;10.70;99.90;;;;;;5044625;28;20079;-74
2022/11/05 06:32:49;;;;;;;5.68;2.45;;;10.70;99.90;;;;;;5049604;28;20040;-75
2022/11/05 06:35:16;;;;;;;5.63;2.13;;;10.70;99.90;;;;;;5051293;28;20085;-75
2022/11/05 06:37:44;;;;;;;5.25;2.10;;;10.70;99.90;;;;;;5051550;28;20122;-75
2022/11/05 06:40:12;;;;;;;5.53;3.47;;;10.70;99.90;;;;;;5051959;28;20117;-74
2022/11/05 06:42:39;;;;;;;4.35;1.80;;;10.70;99.90;;;;;;5052247;28;20044;-74
2022/11/05 06:45:08;;;;;;;4.65;2.60;;;10.40;99.90;;;;;;5051938;28;20041;-74
2022/11/05 06:47:36;;;;;;;5.47;2.55;;;10.50;99.90;;;;;;5036689;28;20068;-74
2022/11/05 06:50:06;;;;;;;6.70;3.10;;;10.50;99.90;;;;;;5037196;28;20103;-76
2022/11/05 06:52:33;;;;;;;5.97;3.88;;;10.60;99.90;;;;;;5055423;28;20044;-73
2022/11/05 06:55:03;;;;;;;7.38;4.60;;;10.70;99.90;;;;;;5042279;28;20045;-76
2022/11/05 06:57:30;;;;;;;6.68;4.38;;;10.80;99.90;;;;;;5034171;28;20048;-76
2022/11/05 06:59:57;;;;;;;6.18;3.20;;;10.80;99.90;;;;;;5034394;28;20473;-74
2022/11/05 07:02:24;;;;;;;4.88;2.60;;;10.80;99.90;;;;;;5034624;28;20331;-75
2022/11/05 07:04:52;;;;;;;4.15;2.80;;;10.80;99.90;;;;;;5032225;28;20453;-76
2022/11/05 07:07:20;;;;;;;4.78;1.67;;;10.80;99.90;;;;;;5032676;28;20489;-77
2022/11/05 07:09:47;;;;;;;3.63;1.85;;;10.90;99.90;;;;;;5035007;28;20046;-74
2022/11/05 07:12:15;;;;;;;2.10;1.10;;;10.80;99.90;;;;;;5039778;28;20473;-75
2022/11/05 07:14:42;;;;;;;5.00;1.48;;;10.80;99.90;;;;;;5040201;28;20069;-75
2022/11/05 07:17:09;;;;;;;5.18;1.70;;;10.80;99.90;;;;;;5039653;28;20067;-77
2022/11/05 07:19:36;;;;;;;2.70;1.50;;;10.80;99.90;;;;;;5034060;28;20046;-76
2022/11/05 07:22:03;;;;;;;4.82;2.15;;;10.70;99.90;;;;;;5032997;28;20056;-75
2022/11/05 07:24:32;;;;;;;4.35;2.40;;;10.80;99.90;;;;;;5034566;28;20041;-76
2022/11/05 07:26:59;;;;;;;3.25;1.88;;;10.80;99.90;;;;;;5033602;28;20043;-77
2022/11/05 07:29:26;;;;;;;4.95;2.20;;;10.90;99.90;;;;;;5034048;28;20068;-73
2022/11/05 07:31:54;;;;;;;8.82;4.90;;;10.80;99.90;;;;;;5030906;28;20037;-78
2022/11/05 07:34:21;;;;;;;14.77;8.23;;;10.60;99.90;;;;;;5031127;28;20045;-76
2022/11/05 07:36:48;;;;;;;6.07;3.50;;;10.40;99.90;;;;;;5032517;28;20041;-76
2022/11/05 07:39:15;;;;;;;68.88;40.67;;;10.40;99.90;;;;;;5032571;28;20051;-74
2022/11/05 07:41:44;;;;;;;37.63;21.42;;;10.30;99.90;;;;;;5032195;28;20045;-73
2022/11/05 07:44:13;;;;;;;12.10;4.97;;;10.30;99.90;;;;;;5034632;28;20048;-74
2022/11/05 07:46:41;;;;;;;7.45;4.40;;;10.30;99.90;;;;;;5031299;28;20045;-74
2022/11/05 07:49:08;;;;;;;8.85;5.50;;;10.40;99.90;;;;;;5035673;28;20124;-74
2022/11/05 07:51:35;;;;;;;9.57;4.40;;;10.50;99.90;;;;;;5033973;28;20117;-74
2022/11/05 07:54:03;;;;;;;7.60;3.55;;;10.60;99.90;;;;;;5035696;28;20501;-74
2022/11/05 07:56:30;;;;;;;7.05;3.95;;;10.60;99.90;;;;;;5034657;28;20168;-74
2022/11/05 07:58:58;;;;;;;6.35;3.92;;;10.60;99.90;;;;;;5034442;28;20056;-74
2022/11/05 08:01:27;;;;;;;7.18;4.15;;;10.60;99.90;;;;;;5034755;28;20041;-73
2022/11/05 08:03:54;;;;;;;6.20;2.72;;;10.60;99.90;;;;;;5032061;28;20056;-74
2022/11/05 08:06:21;;;;;;;7.63;3.75;;;10.60;99.90;;;;;;5036236;28;20100;-75
2022/11/05 08:08:48;;;;;;;4.93;2.72;;;10.70;99.90;;;;;;5037207;28;20042;-76
2022/11/05 08:11:16;;;;;;;5.80;3.00;;;10.70;99.90;;;;;;5037039;28;20048;-75
2022/11/05 08:13:43;;;;;;;10.48;5.55;;;10.70;99.90;;;;;;5035342;28;20171;-74
2022/11/05 08:16:12;;;;;;;5.97;3.95;;;10.70;99.90;;;;;;5032463;28;20049;-74
2022/11/05 08:18:39;;;;;;;8.93;5.50;;;10.70;99.90;;;;;;5032914;28;20041;-73
2022/11/05 08:21:07;;;;;;;11.10;6.13;;;10.60;99.90;;;;;;5021813;28;20058;-73
2022/11/05 08:23:35;;;;;;;11.00;6.65;;;10.50;99.90;;;;;;5091604;22;20040;-76
2022/11/05 08:26:03;;;;;;;11.65;7.70;;;10.60;99.90;;;;;;5091203;28;20040;-79
2022/11/05 08:28:31;;;;;;;15.55;9.30;;;10.70;99.90;;;;;;5090729;28;20332;-78
2022/11/05 08:30:59;;;;;;;14.20;9.70;;;10.70;99.90;;;;;;5089216;28;20090;-78
2022/11/05 08:33:30;;;;;;;14.57;8.68;;;10.70;99.90;;;;;;5089327;28;20040;-75
2022/11/05 08:36:01;;;;;;;11.10;7.15;;;10.80;99.90;;;;;;5106655;28;20413;-78
2022/11/05 08:38:28;;;;;;;11.32;7.80;;;10.70;99.90;;;;;;5089933;28;20050;-77
2022/11/05 08:40:57;;;;;;;13.50;8.02;;;10.70;99.90;;;;;;5090100;28;20123;-76
2022/11/05 08:43:25;;;;;;;10.82;7.63;;;10.70;99.90;;;;;;5090826;28;20036;-75
2022/11/05 08:45:53;;;;;;;12.60;7.35;;;10.70;99.90;;;;;;5091222;28;20044;-77
2022/11/05 08:48:21;;;;;;;11.18;7.65;;;10.70;99.90;;;;;;5090839;28;20055;-76
2022/11/05 08:50:50;;;;;;;13.30;9.30;;;10.80;99.90;;;;;;5090726;28;20071;-76
2022/11/05 08:53:17;;;;;;;16.35;11.13;;;10.80;99.90;;;;;;5091431;28;20123;-78
2022/11/05 08:55:46;;;;;;;13.02;8.40;;;10.90;99.90;;;;;;5091846;28;20040;-78
2022/11/05 08:58:15;;;;;;;12.70;7.18;;;10.80;99.90;;;;;;5091204;28;20131;-78
2022/11/05 09:00:45;;;;;;;11.73;8.00;;;10.80;99.90;;;;;;5091404;28;20044;-76
2022/11/05 09:03:12;;;;;;;11.27;7.55;;;10.90;99.90;;;;;;5089834;28;20108;-77
2022/11/05 09:05:41;;;;;;;12.27;8.43;;;10.80;99.90;;;;;;5089550;28;20051;-77
2022/11/05 09:08:12;;;;;;;10.88;7.68;;;10.90;99.90;;;;;;5089547;28;20036;-77
2022/11/05 09:10:40;;;;;;;11.35;7.93;;;10.90;99.90;;;;;;5087559;28;20496;-78
2022/11/05 09:13:07;;;;;;;15.88;10.82;;;10.90;99.90;;;;;;5088707;28;20044;-77
2022/11/05 09:15:35;;;;;;;11.35;8.10;;;10.90;99.90;;;;;;5089426;28;20040;-77
2022/11/05 09:18:04;;;;;;;11.63;7.30;;;10.90;99.90;;;;;;5089430;28;20035;-78
2022/11/05 09:20:32;;;;;;;16.95;11.32;;;10.90;99.90;;;;;;5087622;28;20038;-75
2022/11/05 09:22:59;;;;;;;15.57;9.73;;;10.90;99.90;;;;;;5089102;28;20139;-78
2022/11/05 09:25:28;;;;;;;12.75;8.32;;;10.90;99.90;;;;;;5090969;28;20031;-76
2022/11/05 09:28:06;;;;;;;11.82;7.97;;;10.80;99.90;;;;;;5090452;28;20085;-76
2022/11/05 09:30:33;;;;;;;10.43;7.68;;;10.80;99.90;;;;;;5088728;28;20043;-76
2022/11/05 09:33:01;;;;;;;11.30;7.93;;;10.80;99.90;;;;;;5090001;28;20043;-76
2022/11/05 09:35:28;;;;;;;13.38;9.48;;;10.80;99.90;;;;;;5090433;28;20131;-75
2022/11/05 09:37:55;;;;;;;19.45;8.85;;;10.80;99.90;;;;;;5088793;28;20044;-76
2022/11/05 09:40:23;;;;;;;23.02;16.83;;;10.80;99.90;;;;;;5089422;28;20046;-77
2022/11/05 09:42:53;;;;;;;18.45;12.45;;;10.80;99.90;;;;;;5089270;28;20039;-76
2022/11/05 09:45:24;;;;;;;17.25;9.55;;;10.80;99.90;;;;;;5089319;28;20093;-75
2022/11/05 09:47:57;;;;;;;14.70;9.57;;;10.90;99.90;;;;;;5089155;28;20040;-78
2022/11/05 09:50:31;;;;;;;28.48;8.38;;;10.90;99.90;;;;;;5089223;28;20127;-78
2022/11/05 09:52:58;;;;;;;10.23;6.18;;;10.90;99.90;;;;;;5087233;28;20044;-82
2022/11/05 09:55:29;;;;;;;10.45;6.55;;;11.00;99.90;;;;;;5089168;28;20044;-76
2022/11/05 09:58:00;;;;;;;11.63;7.47;;;10.90;99.90;;;;;;5087989;28;20044;-75
2022/11/05 10:00:29;;;;;;;11.25;8.05;;;10.90;99.90;;;;;;5087608;28;20127;-76
2022/11/05 10:02:59;;;;;;;14.02;9.00;;;10.90;99.90;;;;;;5092257;28;20047;-84
2022/11/05 10:05:28;;;;;;;12.60;9.70;;;10.90;99.90;;;;;;5090061;28;20055;-85
2022/11/05 10:08:02;;;;;;;15.15;9.80;;;10.80;99.90;;;;;;5094136;28;20036;-82
2022/11/05 10:10:36;;;;;;;14.35;9.73;;;10.80;99.90;;;;;;5089013;28;20047;-83
2022/11/05 10:13:17;;;;;;;15.88;10.98;;;10.80;99.90;;;;;;5095384;28;20101;-91
2022/11/05 10:15:53;;;;;;;11.50;8.75;;;10.70;99.90;;;;;;5087481;28;20052;-77
2022/11/05 10:18:27;;;;;;;8.73;6.65;;;10.80;99.90;;;;;;5096777;28;20123;-77
2022/11/05 10:20:55;;;;;;;9.68;6.93;;;10.80;99.90;;;;;;5097683;28;20115;-78
2022/11/05 10:23:23;;;;;;;10.95;7.80;;;10.80;99.90;;;;;;5091262;28;20071;-77
2022/11/05 10:25:54;;;;;;;23.33;13.60;;;10.80;99.90;;;;;;5093427;28;20036;-75
2022/11/05 10:28:25;;;;;;;20.17;11.80;;;10.90;99.90;;;;;;5094322;28;20125;-77
2022/11/05 10:30:58;;;;;;;18.33;10.75;;;10.90;99.90;;;;;;5093785;28;20036;-76
2022/11/05 10:33:31;;;;;;;14.00;8.13;;;10.90;99.90;;;;;;5093026;28;20402;-76
2022/11/05 10:36:03;;;;;;;16.50;10.73;;;11.00;99.90;;;;;;5092582;28;20174;-74
2022/11/05 10:38:30;;;;;;;19.50;12.20;;;11.00;99.90;;;;;;5092883;28;20055;-89
2022/11/05 10:41:09;;;;;;;27.40;16.20;;;11.00;99.90;;;;;;5090333;28;20047;-76
2022/11/05 10:43:44;;;;;;;15.20;9.05;;;11.00;99.90;;;;;;5093038;28;20039;-76
2022/11/05 10:46:25;;;;;;;16.63;10.83;;;11.00;99.90;;;;;;5091684;28;20143;-76
2022/11/05 10:49:17;;;;;;;14.48;7.15;;;11.10;99.90;;;;;;5093056;28;20040;-76
2022/11/05 10:51:44;;;;;;;18.20;11.98;;;11.10;99.90;;;;;;5092539;28;20607;-75
2022/11/05 10:54:19;;;;;;;17.95;9.63;;;11.10;99.90;;;;;;5093760;28;20036;-76
2022/11/05 10:56:46;;;;;;;15.55;10.70;;;11.20;99.90;;;;;;5093917;28;20123;-77
2022/11/05 10:59:23;;;;;;;15.95;10.00;;;11.30;99.90;;;;;;5092695;28;20129;-74
2022/11/05 11:01:58;;;;;;;14.00;8.15;;;11.30;99.90;;;;;;5092420;28;20039;-76
2022/11/05 11:04:27;;;;;;;14.85;8.77;;;11.30;99.90;;;;;;5092831;28;20043;-76
2022/11/05 11:06:56;;;;;;;13.35;7.85;;;11.20;99.90;;;;;;5091261;28;20040;-77
2022/11/05 11:09:26;;;;;;;14.15;8.73;;;11.30;99.90;;;;;;5093399;28;20066;-75
2022/11/05 11:12:01;;;;;;;13.80;8.32;;;11.20;99.90;;;;;;5090179;28;20036;-74
2022/11/05 11:14:30;;;;;;;11.90;7.47;;;11.30;99.90;;;;;;5092534;28;20044;-76
2022/11/05 11:17:17;;;;;;;9.82;6.43;;;11.30;99.90;;;;;;5091494;28;20442;-78
2022/11/05 11:19:45;;;;;;;11.15;7.70;;;11.30;99.90;;;;;;5092721;28;20048;-75
2022/11/05 11:22:21;;;;;;;13.55;8.45;;;11.20;99.90;;;;;;5092086;28;20526;-77
2022/11/05 11:24:52;;;;;;;9.68;6.43;;;11.30;99.90;;;;;;5091630;28;20067;-75
2022/11/05 11:27:23;;;;;;;11.27;7.35;;;11.30;99.90;;;;;;5093587;28;20044;-76
2022/11/05 11:29:57;;;;;;;9.85;7.00;;;11.30;99.90;;;;;;5092333;28;20119;-76
2022/11/05 11:32:28;;;;;;;9.35;6.00;;;11.30;99.90;;;;;;5092317;28;20366;-78
2022/11/05 11:34:57;;;;;;;7.60;5.38;;;11.30;99.90;;;;;;5091301;28;20570;-76
2022/11/05 11:37:27;;;;;;;10.70;7.50;;;11.20;99.90;;;;;;5092024;28;20048;-76
2022/11/05 11:39:57;;;;;;;11.05;7.43;;;11.20;99.90;;;;;;5090938;28;20040;-76
2022/11/05 11:42:30;;;;;;;15.65;8.13;;;11.20;99.90;;;;;;5093341;28;20052;-77
2022/11/05 11:45:01;;;;;;;10.73;6.75;;;11.20;99.90;;;;;;5092091;28;20040;-75
2022/11/05 11:47:29;;;;;;;9.23;7.05;;;11.20;99.90;;;;;;5092434;28;20439;-77
2022/11/05 11:49:58;;;;;;;9.18;6.55;;;11.10;99.90;;;;;;5090866;28;20036;-77
2022/11/05 11:52:29;;;;;;;9.20;5.53;;;11.20;99.90;;;;;;5091637;28;20050;-75
2022/11/05 11:55:19;;;;;;;11.50;7.15;;;11.10;99.90;;;;;;5090569;28;20109;-76
2022/11/05 11:57:48;;;;;;;13.77;8.52;;;11.10;99.90;;;;;;5088950;28;20337;-77
2022/11/05 12:00:18;;;;;;;26.70;17.95;;;10.90;99.90;;;;;;5089520;28;20134;-75
2022/11/05 12:03:16;;;;;;;12.90;8.55;;;11.00;99.90;;;;;;5092038;28;20044;-77
2022/11/05 12:05:53;;;;;;;15.98;8.63;;;10.90;99.90;;;;;;5090724;28;20119;-77
2022/11/05 12:08:41;;;;;;;13.95;9.15;;;10.90;99.90;;;;;;5091845;28;20042;-76
2022/11/05 12:11:14;;;;;;;14.30;9.95;;;11.00;99.90;;;;;;5091161;28;20036;-76
2022/11/05 12:14:03;;;;;;;17.20;9.60;;;11.00;99.90;;;;;;5091990;28;20050;-75
2022/11/05 12:17:00;;;;;;;13.55;8.50;;;11.10;99.90;;;;;;5091514;28;20106;-76
2022/11/05 12:19:44;;;;;;;21.58;13.98;;;11.00;99.90;;;;;;5088973;28;20120;-77
2022/11/05 12:22:20;;;;;;;19.58;11.98;;;11.00;99.90;;;;;;5089951;28;20111;-75
2022/11/05 12:25:05;;;;;;;;;;;11.00;99.90;;;;;;5090934;28;20686;-75
2022/11/05 12:27:45;;;;;;;25.50;16.08;;;10.90;99.90;;;;;;5090763;28;19920;-76
2022/11/05 12:30:15;;;;;;;11.15;7.07;;;11.00;99.90;;;;;;5090005;28;20138;-77
2022/11/05 12:33:12;;;;;;;8.80;5.88;;;11.00;99.90;;;;;;5090713;28;20032;-74
2022/11/05 12:35:41;;;;;;;;;;;11.00;99.90;;;;;;5078194;28;20040;-77
2022/11/05 12:38:20;;;;;;;9.95;6.57;;;10.90;99.90;;;;;;5097138;28;20000;-75
2022/11/05 12:41:05;;;;;;;14.45;8.90;;;10.80;99.90;;;;;;5092379;28;20506;-76
2022/11/05 12:43:43;;;;;;;13.23;7.85;;;10.90;99.90;;;;;;5095433;28;20083;-76
2022/11/05 12:46:24;;;;;;;11.82;8.15;;;10.80;99.90;;;;;;5090323;28;20119;-76
2022/11/05 12:49:15;;;;;;;13.73;9.02;;;10.80;99.90;;;;;;5089751;28;20036;-76
2022/11/05 12:51:54;;;;;;;8.77;6.00;;;10.80;99.90;;;;;;5088864;28;20050;-75
2022/11/05 12:54:40;;;;;;;10.88;6.32;;;10.80;99.90;;;;;;5090198;28;20356;-77
2022/11/05 12:57:14;;;;;;;11.32;7.40;;;10.90;99.90;;;;;;5090061;28;20392;-76
2022/11/05 12:59:48;;;;;;;12.90;8.38;;;10.90;99.90;;;;;;5089163;28;20044;-77
2022/11/05 13:02:23;;;;;;;11.13;6.05;;;10.90;99.90;;;;;;5088594;28;20066;-78
2022/11/05 13:04:56;;;;;;;9.40;5.88;;;10.80;99.90;;;;;;5089534;28;20115;-76
2022/11/05 13:07:28;;;;;;;9.80;5.57;;;10.80;99.90;;;;;;5090328;28;20040;-78
2022/11/05 13:09:59;;;;;;;9.75;5.40;;;10.90;99.90;;;;;;5089188;28;20042;-76
2022/11/05 13:12:31;;;;;;;9.77;6.80;;;10.90;99.90;;;;;;5090097;28;20039;-78
2022/11/05 13:15:02;;;;;;;10.20;5.93;;;10.90;99.90;;;;;;5089545;28;20115;-78
2022/11/05 13:17:34;;;;;;;11.27;6.80;;;10.80;99.90;;;;;;5089253;28;20131;-76
2022/11/05 13:20:11;;;;;;;12.20;7.20;;;10.80;99.90;;;;;;5088434;28;20032;-78
2022/11/05 13:22:42;;;;;;;11.00;7.00;;;10.80;99.90;;;;;;5089847;28;20059;-76
2022/11/05 13:25:17;;;;;;;12.35;7.65;;;10.80;99.90;;;;;;5089912;28;20036;-79
2022/11/05 13:27:53;;;;;;;12.52;7.57;;;10.80;99.90;;;;;;5089677;28;20115;-77
2022/11/05 13:30:22;;;;;;;11.80;8.23;;;10.70;99.90;;;;;;5088474;28;20042;-77
2022/11/05 13:32:56;;;;;;;15.18;8.95;;;10.70;99.90;;;;;;5089051;28;20045;-77
2022/11/05 13:35:30;;;;;;;16.58;10.70;;;10.80;99.90;;;;;;5088523;28;20041;-75